sensor_id;sensor_type;location;lat;lon;timestamp;temperature;humidity
21271;DHT22;10795;50.796;3.860;2023-06-04T00:02:12;15.70;99.90
21271;DHT22;10795;50.796;3.860;2023-06-04T00:04:38;15.80;99.90
21271;DHT22;10795;50.796;3.860;2023-06-04T00:07:05;16.20;99.90
21271;DHT22;10795;50.796;3.860;2023-06-04T00:09:31;15.60;99.90
21271;DHT22;10795;50.796;3.860;2023-06-04T00:11:57;15.40;99.90
21271;DHT22;10795;50.796;3.860;2023-06-04T00:14:25;15.00;99.90
21271;DHT22;10795;50.796;3.860;2023-06-04T00:16:51;14.90;99.90
21271;DHT22;10795;50.796;3.860;2023-06-04T00:19:17;14.70;99.90
21271;DHT22;10795;50.796;3.860;2023-06-04T00:21:43;14.50;99.90
21271;DHT22;10795;50.796;3.860;2023-06-04T00:24:09;14.40;99.90
21271;DHT22;10795;50.796;3.860;2023-06-04T00:26:35;14.50;99.90
21271;DHT22;10795;50.796;3.860;2023-06-04T00:29:09;14.40;99.90
21271;DHT22;10795;50.796;3.860;2023-06-04T00:31:35;14.40;99.90
21271;DHT22;10795;50.796;3.860;2023-06-04T00:34:03;14.40;99.90
21271;DHT22;10795;50.796;3.860;2023-06-04T00:36:29;14.40;99.90
21271;DHT22;10795;50.796;3.860;2023-06-04T00:38:55;14.30;99.90
21271;DHT22;10795;50.796;3.860;2023-06-04T00:41:21;14.40;99.90
21271;DHT22;10795;50.796;3.860;2023-06-04T00:43:52;14.30;99.90
21271;DHT22;10795;50.796;3.860;2023-06-04T00:46:23;14.20;99.90
21271;DHT22;10795;50.796;3.860;2023-06-04T00:48:51;14.10;99.90
21271;DHT22;10795;50.796;3.860;2023-06-04T00:51:20;14.50;99.90
21271;DHT22;10795;50.796;3.860;2023-06-04T00:53:51;14.60;99.90
21271;DHT22;10795;50.796;3.860;2023-06-04T00:56:18;14.80;99.90
21271;DHT22;10795;50.796;3.860;2023-06-04T00:58:45;14.80;99.90
21271;DHT22;10795;50.796;3.860;2023-06-04T01:01:26;14.60;99.90
21271;DHT22;10795;50.796;3.860;2023-06-04T01:03:55;14.50;99.90
21271;DHT22;10795;50.796;3.860;2023-06-04T01:06:41;14.40;99.90
21271;DHT22;10795;50.796;3.860;2023-06-04T01:09:10;14.30;99.90
21271;DHT22;10795;50.796;3.860;2023-06-04T01:11:39;14.30;99.90
21271;DHT22;10795;50.796;3.860;2023-06-04T01:14:06;14.10;99.90
21271;DHT22;10795;50.796;3.860;2023-06-04T01:17:18;14.00;99.90
21271;DHT22;10795;50.796;3.860;2023-06-04T01:25:39;14.00;99.90
21271;DHT22;10795;50.796;3.860;2023-06-04T01:28:06;14.60;99.90
21271;DHT22;10795;50.796;3.860;2023-06-04T01:30:34;15.40;99.90
21271;DHT22;10795;50.796;3.860;2023-06-04T01:33:01;15.20;99.90
21271;DHT22;10795;50.796;3.860;2023-06-04T01:35:28;15.50;99.90
21271;DHT22;10795;50.796;3.860;2023-06-04T01:37:54;15.40;99.90
21271;DHT22;10795;50.796;3.860;2023-06-04T01:40:21;15.00;99.90
21271;DHT22;10795;50.796;3.860;2023-06-04T01:42:47;14.50;99.90
21271;DHT22;10795;50.796;3.860;2023-06-04T01:45:12;14.60;99.90
21271;DHT22;10795;50.796;3.860;2023-06-04T01:47:38;14.70;99.90
21271;DHT22;10795;50.796;3.860;2023-06-04T01:50:06;15.00;99.90
21271;DHT22;10795;50.796;3.860;2023-06-04T01:52:38;15.00;99.90
21271;DHT22;10795;50.796;3.860;2023-06-04T01:55:06;14.80;99.90
21271;DHT22;10795;50.796;3.860;2023-06-04T01:57:33;15.30;99.90
21271;DHT22;10795;50.796;3.860;2023-06-04T02:00:00;15.10;99.90
21271;DHT22;10795;50.796;3.860;2023-06-04T02:02:26;15.20;99.90
21271;DHT22;10795;50.796;3.860;2023-06-04T02:04:53;15.40;99.90
21271;DHT22;10795;50.796;3.860;2023-06-04T02:07:19;14.90;99.90
21271;DHT22;10795;50.796;3.860;2023-06-04T02:09:48;14.80;99.90
21271;DHT22;10795;50.796;3.860;2023-06-04T02:12:14;14.80;99.90
21271;DHT22;10795;50.796;3.860;2023-06-04T02:14:40;15.00;99.90
21271;DHT22;10795;50.796;3.860;2023-06-04T02:17:11;15.20;99.90
21271;DHT22;10795;50.796;3.860;2023-06-04T02:19:43;15.20;99.90
21271;DHT22;10795;50.796;3.860;2023-06-04T02:22:12;15.40;99.90
21271;DHT22;10795;50.796;3.860;2023-06-04T02:24:39;15.40;99.90
21271;DHT22;10795;50.796;3.860;2023-06-04T02:27:08;15.20;99.90
21271;DHT22;10795;50.796;3.860;2023-06-04T02:29:35;15.20;99.90
21271;DHT22;10795;50.796;3.860;2023-06-04T02:32:01;15.30;99.90
21271;DHT22;10795;50.796;3.860;2023-06-04T02:34:27;15.30;99.90
21271;DHT22;10795;50.796;3.860;2023-06-04T02:36:53;14.80;99.90
21271;DHT22;10795;50.796;3.860;2023-06-04T02:39:20;14.70;99.90
21271;DHT22;10795;50.796;3.860;2023-06-04T02:41:46;14.40;99.90
21271;DHT22;10795;50.796;3.860;2023-06-04T02:44:12;14.70;99.90
21271;DHT22;10795;50.796;3.860;2023-06-04T02:46:41;14.90;99.90
21271;DHT22;10795;50.796;3.860;2023-06-04T02:49:06;14.60;99.90
21271;DHT22;10795;50.796;3.860;2023-06-04T02:51:32;14.60;99.90
21271;DHT22;10795;50.796;3.860;2023-06-04T02:53:58;14.40;99.90
21271;DHT22;10795;50.796;3.860;2023-06-04T02:56:24;14.30;99.90
21271;DHT22;10795;50.796;3.860;2023-06-04T02:58:54;14.40;99.90
21271;DHT22;10795;50.796;3.860;2023-06-04T03:01:25;14.50;99.90
21271;DHT22;10795;50.796;3.860;2023-06-04T03:03:52;15.00;99.90
21271;DHT22;10795;50.796;3.860;2023-06-04T03:06:19;14.50;99.90
21271;DHT22;10795;50.796;3.860;2023-06-04T03:08:47;14.80;99.90
21271;DHT22;10795;50.796;3.860;2023-06-04T03:11:13;15.00;99.90
21271;DHT22;10795;50.796;3.860;2023-06-04T03:13:39;14.90;99.90
21271;DHT22;10795;50.796;3.860;2023-06-04T03:16:05;15.10;99.90
21271;DHT22;10795;50.796;3.860;2023-06-04T03:18:39;15.20;99.90
21271;DHT22;10795;50.796;3.860;2023-06-04T03:21:06;15.00;99.90
21271;DHT22;10795;50.796;3.860;2023-06-04T03:23:35;14.20;99.90
21271;DHT22;10795;50.796;3.860;2023-06-04T03:26:02;14.20;99.90
21271;DHT22;10795;50.796;3.860;2023-06-04T03:28:29;14.50;99.90
21271;DHT22;10795;50.796;3.860;2023-06-04T03:30:55;14.20;99.90
21271;DHT22;10795;50.796;3.860;2023-06-04T03:33:23;14.40;99.90
21271;DHT22;10795;50.796;3.860;2023-06-04T03:35:50;14.70;99.90
21271;DHT22;10795;50.796;3.860;2023-06-04T03:38:16;14.40;99.90
21271;DHT22;10795;50.796;3.860;2023-06-04T03:40:42;14.50;99.90
21271;DHT22;10795;50.796;3.860;2023-06-04T03:43:10;13.80;99.90
21271;DHT22;10795;50.796;3.860;2023-06-04T03:45:36;14.00;99.90
21271;DHT22;10795;50.796;3.860;2023-06-04T03:48:05;14.50;99.90
21271;DHT22;10795;50.796;3.860;2023-06-04T03:50:32;14.60;99.90
21271;DHT22;10795;50.796;3.860;2023-06-04T03:52:58;15.00;99.90
21271;DHT22;10795;50.796;3.860;2023-06-04T03:55:24;14.90;99.90
21271;DHT22;10795;50.796;3.860;2023-06-04T03:57:51;14.60;99.90
21271;DHT22;10795;50.796;3.860;2023-06-04T04:00:18;14.20;99.90
21271;DHT22;10795;50.796;3.860;2023-06-04T04:02:48;14.00;99.90
21271;DHT22;10795;50.796;3.860;2023-06-04T04:05:21;14.20;99.90
21271;DHT22;10795;50.796;3.860;2023-06-04T04:07:49;14.10;99.90
21271;DHT22;10795;50.796;3.860;2023-06-04T04:10:20;13.90;99.90
21271;DHT22;10795;50.796;3.860;2023-06-04T04:12:46;14.10;99.90
21271;DHT22;10795;50.796;3.860;2023-06-04T04:15:17;13.90;99.90
21271;DHT22;10795;50.796;3.860;2023-06-04T04:17:43;14.00;99.90
21271;DHT22;10795;50.796;3.860;2023-06-04T04:20:10;13.90;99.90
21271;DHT22;10795;50.796;3.860;2023-06-04T04:22:42;14.00;99.90
21271;DHT22;10795;50.796;3.860;2023-06-04T04:25:09;14.10;99.90
21271;DHT22;10795;50.796;3.860;2023-06-04T04:27:36;13.90;99.90
21271;DHT22;10795;50.796;3.860;2023-06-04T04:30:08;14.10;99.90
21271;DHT22;10795;50.796;3.860;2023-06-04T04:32:36;14.10;99.90
21271;DHT22;10795;50.796;3.860;2023-06-04T04:35:08;13.90;99.90
21271;DHT22;10795;50.796;3.860;2023-06-04T04:37:37;14.10;99.90
21271;DHT22;10795;50.796;3.860;2023-06-04T04:40:06;14.10;99.90
21271;DHT22;10795;50.796;3.860;2023-06-04T04:42:36;14.30;99.90
21271;DHT22;10795;50.796;3.860;2023-06-04T04:45:05;14.40;99.90
21271;DHT22;10795;50.796;3.860;2023-06-04T04:47:32;14.20;99.90
21271;DHT22;10795;50.796;3.860;2023-06-04T04:49:57;14.30;99.90
21271;DHT22;10795;50.796;3.860;2023-06-04T04:52:24;14.70;99.90
21271;DHT22;10795;50.796;3.860;2023-06-04T04:54:50;14.50;99.90
21271;DHT22;10795;50.796;3.860;2023-06-04T04:57:17;14.60;99.90
21271;DHT22;10795;50.796;3.860;2023-06-04T04:59:47;14.60;99.90
21271;DHT22;10795;50.796;3.860;2023-06-04T05:02:15;14.70;99.90
21271;DHT22;10795;50.796;3.860;2023-06-04T05:04:41;14.90;99.90
21271;DHT22;10795;50.796;3.860;2023-06-04T05:07:07;15.10;99.90
21271;DHT22;10795;50.796;3.860;2023-06-04T05:09:33;15.10;99.90
21271;DHT22;10795;50.796;3.860;2023-06-04T05:11:59;15.40;99.90
21271;DHT22;10795;50.796;3.860;2023-06-04T05:14:25;15.50;99.90
21271;DHT22;10795;50.796;3.860;2023-06-04T05:16:51;15.60;99.90
21271;DHT22;10795;50.796;3.860;2023-06-04T05:19:17;15.80;99.90
21271;DHT22;10795;50.796;3.860;2023-06-04T05:21:44;15.90;99.90
21271;DHT22;10795;50.796;3.860;2023-06-04T05:24:10;15.90;99.90
21271;DHT22;10795;50.796;3.860;2023-06-04T05:26:38;16.10;99.90
21271;DHT22;10795;50.796;3.860;2023-06-04T05:29:11;16.20;99.90
21271;DHT22;10795;50.796;3.860;2023-06-04T05:31:40;16.20;99.90
21271;DHT22;10795;50.796;3.860;2023-06-04T05:34:08;16.60;99.90
21271;DHT22;10795;50.796;3.860;2023-06-04T05:36:37;16.80;99.90
21271;DHT22;10795;50.796;3.860;2023-06-04T05:39:06;16.90;99.90
21271;DHT22;10795;50.796;3.860;2023-06-04T05:41:41;17.10;99.90
21271;DHT22;10795;50.796;3.860;2023-06-04T05:44:08;17.20;99.90
21271;DHT22;10795;50.796;3.860;2023-06-04T05:46:34;17.40;99.90
21271;DHT22;10795;50.796;3.860;2023-06-04T05:49:00;17.50;99.90
21271;DHT22;10795;50.796;3.860;2023-06-04T05:51:27;17.70;99.90
21271;DHT22;10795;50.796;3.860;2023-06-04T05:53:53;17.60;99.90
21271;DHT22;10795;50.796;3.860;2023-06-04T05:56:19;17.90;99.90
21271;DHT22;10795;50.796;3.860;2023-06-04T05:58:51;18.20;99.90
21271;DHT22;10795;50.796;3.860;2023-06-04T06:01:18;18.40;99.90
21271;DHT22;10795;50.796;3.860;2023-06-04T06:03:44;18.60;99.90
21271;DHT22;10795;50.796;3.860;2023-06-04T06:06:12;18.80;99.90
21271;DHT22;10795;50.796;3.860;2023-06-04T06:08:44;18.80;99.90
21271;DHT22;10795;50.796;3.860;2023-06-04T06:11:09;19.00;99.90
21271;DHT22;10795;50.796;3.860;2023-06-04T06:13:35;19.30;99.90
21271;DHT22;10795;50.796;3.860;2023-06-04T06:16:01;19.50;99.90
21271;DHT22;10795;50.796;3.860;2023-06-04T06:18:27;19.60;99.90
21271;DHT22;10795;50.796;3.860;2023-06-04T06:20:53;19.90;99.90
21271;DHT22;10795;50.796;3.860;2023-06-04T06:23:19;19.80;99.90
21271;DHT22;10795;50.796;3.860;2023-06-04T06:25:50;20.10;99.90
21271;DHT22;10795;50.796;3.860;2023-06-04T06:28:22;20.40;99.90
21271;DHT22;10795;50.796;3.860;2023-06-04T06:30:51;20.50;99.90
21271;DHT22;10795;50.796;3.860;2023-06-04T06:33:17;20.70;99.90
21271;DHT22;10795;50.796;3.860;2023-06-04T06:35:49;20.80;99.90
21271;DHT22;10795;50.796;3.860;2023-06-04T06:38:15;20.90;99.90
21271;DHT22;10795;50.796;3.860;2023-06-04T06:40:40;21.20;99.90
21271;DHT22;10795;50.796;3.860;2023-06-04T06:43:06;21.50;99.90
21271;DHT22;10795;50.796;3.860;2023-06-04T06:45:32;21.80;99.90
21271;DHT22;10795;50.796;3.860;2023-06-04T06:47:58;21.80;99.90
21271;DHT22;10795;50.796;3.860;2023-06-04T06:50:24;21.90;99.90
21271;DHT22;10795;50.796;3.860;2023-06-04T06:52:49;22.30;99.90
21271;DHT22;10795;50.796;3.860;2023-06-04T06:55:15;22.70;99.90
21271;DHT22;10795;50.796;3.860;2023-06-04T06:57:41;22.70;99.90
21271;DHT22;10795;50.796;3.860;2023-06-04T07:00:07;23.00;99.90
21271;DHT22;10795;50.796;3.860;2023-06-04T07:02:34;23.10;99.90
21271;DHT22;10795;50.796;3.860;2023-06-04T07:05:00;23.30;99.90
21271;DHT22;10795;50.796;3.860;2023-06-04T07:07:26;23.30;99.90
21271;DHT22;10795;50.796;3.860;2023-06-04T07:09:52;23.20;99.90
21271;DHT22;10795;50.796;3.860;2023-06-04T07:12:17;23.70;99.90
21271;DHT22;10795;50.796;3.860;2023-06-04T07:14:43;24.20;99.90
21271;DHT22;10795;50.796;3.860;2023-06-04T07:17:09;24.30;99.90
21271;DHT22;10795;50.796;3.860;2023-06-04T07:19:35;24.30;99.90
21271;DHT22;10795;50.796;3.860;2023-06-04T07:22:01;24.40;99.90
21271;DHT22;10795;50.796;3.860;2023-06-04T07:24:26;24.50;99.90
21271;DHT22;10795;50.796;3.860;2023-06-04T07:26:52;24.80;99.90
21271;DHT22;10795;50.796;3.860;2023-06-04T07:29:18;25.20;99.90
21271;DHT22;10795;50.796;3.860;2023-06-04T07:31:44;25.30;99.90
21271;DHT22;10795;50.796;3.860;2023-06-04T07:34:10;25.20;99.90
21271;DHT22;10795;50.796;3.860;2023-06-04T07:36:36;24.90;99.90
21271;DHT22;10795;50.796;3.860;2023-06-04T07:39:02;25.20;99.90
21271;DHT22;10795;50.796;3.860;2023-06-04T07:41:30;25.70;99.90
21271;DHT22;10795;50.796;3.860;2023-06-04T07:43:56;25.70;99.90
21271;DHT22;10795;50.796;3.860;2023-06-04T07:46:21;26.10;99.90
21271;DHT22;10795;50.796;3.860;2023-06-04T07:48:47;26.20;99.90
21271;DHT22;10795;50.796;3.860;2023-06-04T07:51:13;26.50;99.90
21271;DHT22;10795;50.796;3.860;2023-06-04T07:53:39;26.40;99.90
21271;DHT22;10795;50.796;3.860;2023-06-04T07:56:06;26.70;99.90
21271;DHT22;10795;50.796;3.860;2023-06-04T07:58:31;27.20;99.90
21271;DHT22;10795;50.796;3.860;2023-06-04T08:00:57;27.20;99.90
21271;DHT22;10795;50.796;3.860;2023-06-04T08:03:23;27.30;99.90
21271;DHT22;10795;50.796;3.860;2023-06-04T08:05:50;26.90;99.90
21271;DHT22;10795;50.796;3.860;2023-06-04T08:08:15;26.90;99.90
21271;DHT22;10795;50.796;3.860;2023-06-04T08:10:41;27.30;99.90
21271;DHT22;10795;50.796;3.860;2023-06-04T08:13:07;27.40;99.90
21271;DHT22;10795;50.796;3.860;2023-06-04T08:15:34;27.50;99.90
21271;DHT22;10795;50.796;3.860;2023-06-04T08:18:00;28.20;99.90
21271;DHT22;10795;50.796;3.860;2023-06-04T08:20:25;28.00;99.90
21271;DHT22;10795;50.796;3.860;2023-06-04T08:22:51;27.60;99.90
21271;DHT22;10795;50.796;3.860;2023-06-04T08:25:17;28.10;99.90
21271;DHT22;10795;50.796;3.860;2023-06-04T08:27:43;28.40;99.90
21271;DHT22;10795;50.796;3.860;2023-06-04T08:30:09;28.30;99.90
21271;DHT22;10795;50.796;3.860;2023-06-04T08:32:35;28.40;99.90
21271;DHT22;10795;50.796;3.860;2023-06-04T08:35:01;29.00;99.90
21271;DHT22;10795;50.796;3.860;2023-06-04T08:37:26;28.70;99.90
21271;DHT22;10795;50.796;3.860;2023-06-04T08:39:52;28.80;99.90
21271;DHT22;10795;50.796;3.860;2023-06-04T08:42:22;29.20;99.90
21271;DHT22;10795;50.796;3.860;2023-06-04T08:44:51;29.30;99.90
21271;DHT22;10795;50.796;3.860;2023-06-04T08:47:19;29.30;99.90
21271;DHT22;10795;50.796;3.860;2023-06-04T08:49:50;29.10;99.90
21271;DHT22;10795;50.796;3.860;2023-06-04T08:52:16;29.30;99.90
21271;DHT22;10795;50.796;3.860;2023-06-04T08:54:43;29.30;99.90
21271;DHT22;10795;50.796;3.860;2023-06-04T08:57:09;29.80;99.90
21271;DHT22;10795;50.796;3.860;2023-06-04T08:59:36;30.10;99.90
21271;DHT22;10795;50.796;3.860;2023-06-04T09:02:02;30.00;99.90
21271;DHT22;10795;50.796;3.860;2023-06-04T09:04:29;29.90;99.90
21271;DHT22;10795;50.796;3.860;2023-06-04T09:07:01;29.90;99.90
21271;DHT22;10795;50.796;3.860;2023-06-04T09:09:28;29.00;99.00
21271;DHT22;10795;50.796;3.860;2023-06-04T09:11:56;29.90;99.90
21271;DHT22;10795;50.796;3.860;2023-06-04T09:14:23;29.90;99.90
21271;DHT22;10795;50.796;3.860;2023-06-04T09:16:50;29.70;99.90
21271;DHT22;10795;50.796;3.860;2023-06-04T09:19:17;30.00;99.90
21271;DHT22;10795;50.796;3.860;2023-06-04T09:21:48;29.80;99.90
21271;DHT22;10795;50.796;3.860;2023-06-04T09:24:13;29.50;98.50
21271;DHT22;10795;50.796;3.860;2023-06-04T09:26:39;30.00;99.50
21271;DHT22;10795;50.796;3.860;2023-06-04T09:29:05;30.40;99.40
21271;DHT22;10795;50.796;3.860;2023-06-04T09:31:31;30.80;99.00
21271;DHT22;10795;50.796;3.860;2023-06-04T09:34:03;30.80;97.10
21271;DHT22;10795;50.796;3.860;2023-06-04T09:36:35;30.70;98.80
21271;DHT22;10795;50.796;3.860;2023-06-04T09:39:17;30.90;98.20
21271;DHT22;10795;50.796;3.860;2023-06-04T09:41:43;30.50;99.30
21271;DHT22;10795;50.796;3.860;2023-06-04T09:44:09;30.30;97.00
21271;DHT22;10795;50.796;3.860;2023-06-04T09:46:37;30.30;93.20
21271;DHT22;10795;50.796;3.860;2023-06-04T09:49:06;30.30;96.00
21271;DHT22;10795;50.796;3.860;2023-06-04T09:51:33;30.50;96.80
21271;DHT22;10795;50.796;3.860;2023-06-04T09:54:00;30.90;95.20
21271;DHT22;10795;50.796;3.860;2023-06-04T09:56:27;30.30;96.70
21271;DHT22;10795;50.796;3.860;2023-06-04T09:58:59;30.20;95.00
21271;DHT22;10795;50.796;3.860;2023-06-04T10:01:29;30.50;95.20
21271;DHT22;10795;50.796;3.860;2023-06-04T10:03:58;30.50;91.90
21271;DHT22;10795;50.796;3.860;2023-06-04T10:06:30;30.50;93.30
21271;DHT22;10795;50.796;3.860;2023-06-04T10:08:59;30.40;93.60
21271;DHT22;10795;50.796;3.860;2023-06-04T10:11:35;30.50;91.50
21271;DHT22;10795;50.796;3.860;2023-06-04T10:14:07;30.40;92.20
21271;DHT22;10795;50.796;3.860;2023-06-04T10:16:37;30.70;90.10
21271;DHT22;10795;50.796;3.860;2023-06-04T10:19:07;30.70;91.20
21271;DHT22;10795;50.796;3.860;2023-06-04T10:21:34;30.90;90.40
21271;DHT22;10795;50.796;3.860;2023-06-04T10:24:03;30.50;92.30
21271;DHT22;10795;50.796;3.860;2023-06-04T10:26:29;29.80;90.00
21271;DHT22;10795;50.796;3.860;2023-06-04T10:28:57;30.50;92.30
21271;DHT22;10795;50.796;3.860;2023-06-04T10:31:23;30.40;91.70
21271;DHT22;10795;50.796;3.860;2023-06-04T10:33:54;30.90;86.20
21271;DHT22;10795;50.796;3.860;2023-06-04T10:36:25;31.10;91.40
21271;DHT22;10795;50.796;3.860;2023-06-04T10:38:53;30.90;91.70
21271;DHT22;10795;50.796;3.860;2023-06-04T10:41:19;31.00;91.30
21271;DHT22;10795;50.796;3.860;2023-06-04T10:43:47;31.00;89.80
21271;DHT22;10795;50.796;3.860;2023-06-04T10:46:18;31.20;89.80
21271;DHT22;10795;50.796;3.860;2023-06-04T10:48:52;31.10;80.50
21271;DHT22;10795;50.796;3.860;2023-06-04T10:53:57;30.70;90.30
21271;DHT22;10795;50.796;3.860;2023-06-04T10:56:27;30.80;87.50
21271;DHT22;10795;50.796;3.860;2023-06-04T10:58:53;30.80;86.10
21271;DHT22;10795;50.796;3.860;2023-06-04T11:01:29;30.90;86.00
21271;DHT22;10795;50.796;3.860;2023-06-04T11:03:57;31.10;86.50
21271;DHT22;10795;50.796;3.860;2023-06-04T11:06:24;30.80;82.70
21271;DHT22;10795;50.796;3.860;2023-06-04T11:09:05;30.30;82.60
21271;DHT22;10795;50.796;3.860;2023-06-04T11:11:32;30.60;83.80
21271;DHT22;10795;50.796;3.860;2023-06-04T11:14:07;30.60;83.90
21271;DHT22;10795;50.796;3.860;2023-06-04T11:16:34;30.60;80.40
21271;DHT22;10795;50.796;3.860;2023-06-04T11:19:00;30.70;80.50
21271;DHT22;10795;50.796;3.860;2023-06-04T11:21:27;30.70;80.30
21271;DHT22;10795;50.796;3.860;2023-06-04T11:24:00;30.70;81.90
21271;DHT22;10795;50.796;3.860;2023-06-04T11:26:36;30.50;82.10
21271;DHT22;10795;50.796;3.860;2023-06-04T11:29:06;30.80;82.30
21271;DHT22;10795;50.796;3.860;2023-06-04T11:31:42;30.80;79.50
21271;DHT22;10795;50.796;3.860;2023-06-04T11:34:08;30.70;82.20
21271;DHT22;10795;50.796;3.860;2023-06-04T11:36:34;30.80;81.20
21271;DHT22;10795;50.796;3.860;2023-06-04T11:39:03;30.50;81.50
21271;DHT22;10795;50.796;3.860;2023-06-04T11:41:32;30.40;80.80
21271;DHT22;10795;50.796;3.860;2023-06-04T11:44:03;30.40;81.00
21271;DHT22;10795;50.796;3.860;2023-06-04T11:46:34;30.40;82.50
21271;DHT22;10795;50.796;3.860;2023-06-04T11:49:00;30.40;82.60
21271;DHT22;10795;50.796;3.860;2023-06-04T11:51:27;30.60;78.60
21271;DHT22;10795;50.796;3.860;2023-06-04T11:53:53;30.80;78.00
21271;DHT22;10795;50.796;3.860;2023-06-04T11:56:20;30.40;77.90
21271;DHT22;10795;50.796;3.860;2023-06-04T11:58:46;30.40;78.50
21271;DHT22;10795;50.796;3.860;2023-06-04T12:01:13;30.30;77.60
21271;DHT22;10795;50.796;3.860;2023-06-04T12:03:41;30.50;76.90
21271;DHT22;10795;50.796;3.860;2023-06-04T12:06:15;30.30;76.80
21271;DHT22;10795;50.796;3.860;2023-06-04T12:08:49;30.00;76.60
21271;DHT22;10795;50.796;3.860;2023-06-04T12:11:29;30.30;78.50
21271;DHT22;10795;50.796;3.860;2023-06-04T12:14:03;30.10;76.00
21271;DHT22;10795;50.796;3.860;2023-06-04T12:16:29;30.10;74.30
21271;DHT22;10795;50.796;3.860;2023-06-04T12:19:05;30.00;74.80
21271;DHT22;10795;50.796;3.860;2023-06-04T12:21:32;30.10;75.20
21271;DHT22;10795;50.796;3.860;2023-06-04T12:24:11;30.00;79.40
21271;DHT22;10795;50.796;3.860;2023-06-04T12:26:42;30.10;74.50
21271;DHT22;10795;50.796;3.860;2023-06-04T12:29:10;29.90;75.40
21271;DHT22;10795;50.796;3.860;2023-06-04T12:31:37;30.10;76.20
21271;DHT22;10795;50.796;3.860;2023-06-04T12:34:03;29.80;76.00
21271;DHT22;10795;50.796;3.860;2023-06-04T12:36:29;30.30;77.00
21271;DHT22;10795;50.796;3.860;2023-06-04T12:38:58;29.90;74.10
21271;DHT22;10795;50.796;3.860;2023-06-04T12:41:25;29.50;74.80
21271;DHT22;10795;50.796;3.860;2023-06-04T12:43:51;29.20;75.00
21271;DHT22;10795;50.796;3.860;2023-06-04T12:46:17;29.50;74.60
21271;DHT22;10795;50.796;3.860;2023-06-04T12:48:43;29.80;75.10
21271;DHT22;10795;50.796;3.860;2023-06-04T12:51:09;29.90;76.20
21271;DHT22;10795;50.796;3.860;2023-06-04T12:53:41;30.00;75.90
21271;DHT22;10795;50.796;3.860;2023-06-04T12:56:08;29.70;75.00
21271;DHT22;10795;50.796;3.860;2023-06-04T12:58:34;29.70;76.10
21271;DHT22;10795;50.796;3.860;2023-06-04T13:01:00;29.40;75.40
21271;DHT22;10795;50.796;3.860;2023-06-04T13:03:26;29.50;74.80
21271;DHT22;10795;50.796;3.860;2023-06-04T13:05:52;29.10;74.10
21271;DHT22;10795;50.796;3.860;2023-06-04T13:08:19;28.90;74.30
21271;DHT22;10795;50.796;3.860;2023-06-04T13:10:50;29.30;75.70
21271;DHT22;10795;50.796;3.860;2023-06-04T13:13:20;29.40;73.70
21271;DHT22;10795;50.796;3.860;2023-06-04T13:15:45;29.40;75.30
21271;DHT22;10795;50.796;3.860;2023-06-04T13:18:11;29.40;75.10
21271;DHT22;10795;50.796;3.860;2023-06-04T13:20:39;29.30;73.70
21271;DHT22;10795;50.796;3.860;2023-06-04T13:23:06;29.10;74.10
21271;DHT22;10795;50.796;3.860;2023-06-04T13:25:32;29.20;73.60
21271;DHT22;10795;50.796;3.860;2023-06-04T13:28:04;29.30;72.70
21271;DHT22;10795;50.796;3.860;2023-06-04T13:30:31;29.40;75.10
21271;DHT22;10795;50.796;3.860;2023-06-04T13:32:57;29.30;73.30
21271;DHT22;10795;50.796;3.860;2023-06-04T13:35:25;28.90;74.30
21271;DHT22;10795;50.796;3.860;2023-06-04T13:37:51;28.90;72.30
21271;DHT22;10795;50.796;3.860;2023-06-04T13:40:17;28.60;73.50
21271;DHT22;10795;50.796;3.860;2023-06-04T13:42:43;28.50;73.90
21271;DHT22;10795;50.796;3.860;2023-06-04T13:45:09;28.30;75.10
21271;DHT22;10795;50.796;3.860;2023-06-04T13:47:35;28.50;75.80
21271;DHT22;10795;50.796;3.860;2023-06-04T13:50:01;28.50;75.10
21271;DHT22;10795;50.796;3.860;2023-06-04T13:52:27;28.60;74.90
21271;DHT22;10795;50.796;3.860;2023-06-04T13:54:55;28.40;73.50
21271;DHT22;10795;50.796;3.860;2023-06-04T13:57:22;28.40;74.50
21271;DHT22;10795;50.796;3.860;2023-06-04T13:59:49;28.50;73.90
21271;DHT22;10795;50.796;3.860;2023-06-04T14:02:15;28.50;74.80
21271;DHT22;10795;50.796;3.860;2023-06-04T14:04:41;28.40;74.30
21271;DHT22;10795;50.796;3.860;2023-06-04T14:07:06;28.00;74.80
21271;DHT22;10795;50.796;3.860;2023-06-04T14:09:32;27.80;75.00
21271;DHT22;10795;50.796;3.860;2023-06-04T14:11:59;27.80;74.50
21271;DHT22;10795;50.796;3.860;2023-06-04T14:14:25;27.70;75.10
21271;DHT22;10795;50.796;3.860;2023-06-04T14:16:51;27.70;74.00
21271;DHT22;10795;50.796;3.860;2023-06-04T14:19:16;27.50;75.20
21271;DHT22;10795;50.796;3.860;2023-06-04T14:21:43;27.60;74.70
21271;DHT22;10795;50.796;3.860;2023-06-04T14:24:10;27.40;75.10
21271;DHT22;10795;50.796;3.860;2023-06-04T14:26:36;27.60;74.90
21271;DHT22;10795;50.796;3.860;2023-06-04T14:29:02;27.60;74.50
21271;DHT22;10795;50.796;3.860;2023-06-04T14:31:28;27.70;74.80
21271;DHT22;10795;50.796;3.860;2023-06-04T14:33:53;27.60;76.20
21271;DHT22;10795;50.796;3.860;2023-06-04T14:36:19;27.60;75.30
21271;DHT22;10795;50.796;3.860;2023-06-04T14:38:46;27.50;75.40
21271;DHT22;10795;50.796;3.860;2023-06-04T14:41:14;27.50;75.70
21271;DHT22;10795;50.796;3.860;2023-06-04T14:43:40;27.50;76.40
21271;DHT22;10795;50.796;3.860;2023-06-04T14:46:06;27.40;76.00
21271;DHT22;10795;50.796;3.860;2023-06-04T14:48:32;27.40;74.40
21271;DHT22;10795;50.796;3.860;2023-06-04T14:50:58;27.40;76.00
21271;DHT22;10795;50.796;3.860;2023-06-04T14:53:23;27.40;75.20
21271;DHT22;10795;50.796;3.860;2023-06-04T14:55:49;27.30;75.10
21271;DHT22;10795;50.796;3.860;2023-06-04T14:58:17;27.30;74.90
21271;DHT22;10795;50.796;3.860;2023-06-04T15:00:43;27.20;76.10
21271;DHT22;10795;50.796;3.860;2023-06-04T15:03:08;26.70;71.20
21271;DHT22;10795;50.796;3.860;2023-06-04T15:05:34;26.80;74.30
21271;DHT22;10795;50.796;3.860;2023-06-04T15:08:01;26.80;75.10
21271;DHT22;10795;50.796;3.860;2023-06-04T15:10:27;27.00;76.20
21271;DHT22;10795;50.796;3.860;2023-06-04T15:12:53;26.80;75.40
21271;DHT22;10795;50.796;3.860;2023-06-04T15:15:19;26.70;74.70
21271;DHT22;10795;50.796;3.860;2023-06-04T15:17:45;26.60;75.70
21271;DHT22;10795;50.796;3.860;2023-06-04T15:20:10;26.60;75.10
21271;DHT22;10795;50.796;3.860;2023-06-04T15:22:36;26.50;73.20
21271;DHT22;10795;50.796;3.860;2023-06-04T15:25:02;26.60;74.50
21271;DHT22;10795;50.796;3.860;2023-06-04T15:27:28;26.40;76.70
21271;DHT22;10795;50.796;3.860;2023-06-04T15:29:54;26.50;76.80
21271;DHT22;10795;50.796;3.860;2023-06-04T15:32:20;26.50;77.50
21271;DHT22;10795;50.796;3.860;2023-06-04T15:34:47;26.30;75.00
21271;DHT22;10795;50.796;3.860;2023-06-04T15:37:12;26.20;76.90
21271;DHT22;10795;50.796;3.860;2023-06-04T15:39:38;26.30;75.90
21271;DHT22;10795;50.796;3.860;2023-06-04T15:42:04;26.20;76.40